sensor_id;sensor_type;location;lat;lon;timestamp;temperature;humidity
74811;DHT22;63340;48.404;-4.506;2023-02-03T00:00:56;13.05;67.05
74811;DHT22;63340;48.404;-4.506;2023-02-03T00:03:22;13.07;67.12
74811;DHT22;63340;48.404;-4.506;2023-02-03T00:05:47;13.09;67.25
74811;DHT22;63340;48.404;-4.506;2023-02-03T00:08:14;13.07;67.22
74811;DHT22;63340;48.404;-4.506;2023-02-03T00:10:40;13.07;67.19
74811;DHT22;63340;48.404;-4.506;2023-02-03T00:13:06;13.07;67.21
74811;DHT22;63340;48.404;-4.506;2023-02-03T00:15:32;13.06;67.16
74811;DHT22;63340;48.404;-4.506;2023-02-03T00:17:58;13.12;67.09
74811;DHT22;63340;48.404;-4.506;2023-02-03T00:20:23;13.07;67.03
74811;DHT22;63340;48.404;-4.506;2023-02-03T00:22:50;13.10;66.99
74811;DHT22;63340;48.404;-4.506;2023-02-03T00:25:15;13.09;66.98
74811;DHT22;63340;48.404;-4.506;2023-02-03T00:27:41;13.10;66.96
74811;DHT22;63340;48.404;-4.506;2023-02-03T00:30:07;13.10;67.07
74811;DHT22;63340;48.404;-4.506;2023-02-03T00:32:33;13.10;67.08
74811;DHT22;63340;48.404;-4.506;2023-02-03T00:34:58;13.09;67.38
74811;DHT22;63340;48.404;-4.506;2023-02-03T00:37:23;13.07;67.56
74811;DHT22;63340;48.404;-4.506;2023-02-03T00:39:49;13.09;67.63
74811;DHT22;63340;48.404;-4.506;2023-02-03T00:42:14;13.09;67.91
74811;DHT22;63340;48.404;-4.506;2023-02-03T00:44:40;13.07;67.77
74811;DHT22;63340;48.404;-4.506;2023-02-03T00:47:06;12.99;68.52
74811;DHT22;63340;48.404;-4.506;2023-02-03T00:49:32;12.95;68.83
74811;DHT22;63340;48.404;-4.506;2023-02-03T00:51:57;12.91;68.69
74811;DHT22;63340;48.404;-4.506;2023-02-03T00:54:23;12.88;68.62
74811;DHT22;63340;48.404;-4.506;2023-02-03T00:56:48;12.88;68.78
74811;DHT22;63340;48.404;-4.506;2023-02-03T00:59:14;12.89;69.09
74811;DHT22;63340;48.404;-4.506;2023-02-03T01:01:39;12.85;69.12
74811;DHT22;63340;48.404;-4.506;2023-02-03T01:04:05;12.78;69.18
74811;DHT22;63340;48.404;-4.506;2023-02-03T01:06:30;12.78;69.81
74811;DHT22;63340;48.404;-4.506;2023-02-03T01:08:56;12.75;69.72
74811;DHT22;63340;48.404;-4.506;2023-02-03T01:11:25;12.72;70.10
74811;DHT22;63340;48.404;-4.506;2023-02-03T01:13:52;12.61;70.57
74811;DHT22;63340;48.404;-4.506;2023-02-03T01:16:19;12.61;70.32
74811;DHT22;63340;48.404;-4.506;2023-02-03T01:18:46;12.61;70.09
74811;DHT22;63340;48.404;-4.506;2023-02-03T01:21:14;12.59;70.62
74811;DHT22;63340;48.404;-4.506;2023-02-03T01:23:40;12.58;70.73
74811;DHT22;63340;48.404;-4.506;2023-02-03T01:26:08;12.58;70.66
74811;DHT22;63340;48.404;-4.506;2023-02-03T01:28:34;12.54;70.91
74811;DHT22;63340;48.404;-4.506;2023-02-03T01:31:10;12.48;72.48
74811;DHT22;63340;48.404;-4.506;2023-02-03T01:33:35;12.45;72.02
74811;DHT22;63340;48.404;-4.506;2023-02-03T01:36:01;12.42;72.86
74811;DHT22;63340;48.404;-4.506;2023-02-03T01:38:27;12.40;71.96
74811;DHT22;63340;48.404;-4.506;2023-02-03T01:40:52;12.44;72.13
74811;DHT22;63340;48.404;-4.506;2023-02-03T01:43:38;12.45;71.91
74811;DHT22;63340;48.404;-4.506;2023-02-03T01:46:33;12.47;71.54
74811;DHT22;63340;48.404;-4.506;2023-02-03T01:49:21;12.51;71.26
74811;DHT22;63340;48.404;-4.506;2023-02-03T01:51:49;12.49;71.56
74811;DHT22;63340;48.404;-4.506;2023-02-03T01:54:19;12.55;71.12
74811;DHT22;63340;48.404;-4.506;2023-02-03T01:56:51;12.61;71.01
74811;DHT22;63340;48.404;-4.506;2023-02-03T01:59:18;12.61;71.14
74811;DHT22;63340;48.404;-4.506;2023-02-03T02:01:45;12.64;70.99
74811;DHT22;63340;48.404;-4.506;2023-02-03T02:04:11;12.62;70.96
74811;DHT22;63340;48.404;-4.506;2023-02-03T02:06:37;12.62;71.13
74811;DHT22;63340;48.404;-4.506;2023-02-03T02:09:02;12.62;71.16
74811;DHT22;63340;48.404;-4.506;2023-02-03T02:11:29;12.62;71.08
74811;DHT22;63340;48.404;-4.506;2023-02-03T02:13:58;12.62;70.96
74811;DHT22;63340;48.404;-4.506;2023-02-03T02:16:38;12.69;70.86
74811;DHT22;63340;48.404;-4.506;2023-02-03T02:22:07;12.75;70.77
74811;DHT22;63340;48.404;-4.506;2023-02-03T02:39:08;12.69;71.50
74811;DHT22;63340;48.404;-4.506;2023-02-03T02:41:39;12.65;71.24
74811;DHT22;63340;48.404;-4.506;2023-02-03T02:44:25;12.66;71.51
74811;DHT22;63340;48.404;-4.506;2023-02-03T02:46:58;12.64;71.67
74811;DHT22;63340;48.404;-4.506;2023-02-03T02:49:42;12.65;71.39
74811;DHT22;63340;48.404;-4.506;2023-02-03T02:52:10;12.71;71.24
74811;DHT22;63340;48.404;-4.506;2023-02-03T02:54:39;12.75;71.26
74811;DHT22;63340;48.404;-4.506;2023-02-03T02:57:09;12.74;71.30
74811;DHT22;63340;48.404;-4.506;2023-02-03T02:59:35;12.76;71.25
74811;DHT22;63340;48.404;-4.506;2023-02-03T03:02:01;12.76;71.39
74811;DHT22;63340;48.404;-4.506;2023-02-03T03:04:29;12.78;71.33
74811;DHT22;63340;48.404;-4.506;2023-02-03T03:07:00;12.81;71.23
74811;DHT22;63340;48.404;-4.506;2023-02-03T03:09:32;12.79;71.22
74811;DHT22;63340;48.404;-4.506;2023-02-03T03:12:23;12.79;71.25
74811;DHT22;63340;48.404;-4.506;2023-02-03T03:15:11;12.81;71.26
74811;DHT22;63340;48.404;-4.506;2023-02-03T03:17:58;12.78;71.16
74811;DHT22;63340;48.404;-4.506;2023-02-03T03:20:26;12.81;71.15
74811;DHT22;63340;48.404;-4.506;2023-02-03T03:22:56;12.82;71.14
74811;DHT22;63340;48.404;-4.506;2023-02-03T03:25:45;12.82;71.31
74811;DHT22;63340;48.404;-4.506;2023-02-03T03:28:16;12.81;71.21
74811;DHT22;63340;48.404;-4.506;2023-02-03T03:30:43;12.82;71.31
74811;DHT22;63340;48.404;-4.506;2023-02-03T03:33:09;12.81;71.36
74811;DHT22;63340;48.404;-4.506;2023-02-03T03:35:48;12.78;71.42
74811;DHT22;63340;48.404;-4.506;2023-02-03T03:38:35;12.78;71.34
74811;DHT22;63340;48.404;-4.506;2023-02-03T03:41:09;12.79;71.36
74811;DHT22;63340;48.404;-4.506;2023-02-03T03:43:39;12.79;71.30
74811;DHT22;63340;48.404;-4.506;2023-02-03T03:46:12;12.81;71.25
74811;DHT22;63340;48.404;-4.506;2023-02-03T03:48:49;12.79;71.47
74811;DHT22;63340;48.404;-4.506;2023-02-03T03:51:18;12.79;71.44
74811;DHT22;63340;48.404;-4.506;2023-02-03T03:53:46;12.79;71.41
74811;DHT22;63340;48.404;-4.506;2023-02-03T03:56:21;12.82;71.35
74811;DHT22;63340;48.404;-4.506;2023-02-03T03:58:49;12.86;71.25
74811;DHT22;63340;48.404;-4.506;2023-02-03T04:01:17;12.93;71.10
74811;DHT22;63340;48.404;-4.506;2023-02-03T04:03:49;12.96;71.08
74811;DHT22;63340;48.404;-4.506;2023-02-03T04:06:16;13.00;70.98
74811;DHT22;63340;48.404;-4.506;2023-02-03T04:08:41;13.05;70.96
74811;DHT22;63340;48.404;-4.506;2023-02-03T04:11:07;13.02;70.96
74811;DHT22;63340;48.404;-4.506;2023-02-03T04:13:32;12.99;70.97
74811;DHT22;63340;48.404;-4.506;2023-02-03T04:15:58;13.00;71.09
74811;DHT22;63340;48.404;-4.506;2023-02-03T04:18:23;12.95;71.11
74811;DHT22;63340;48.404;-4.506;2023-02-03T04:20:49;12.92;71.14
74811;DHT22;63340;48.404;-4.506;2023-02-03T04:23:15;12.93;71.20
74811;DHT22;63340;48.404;-4.506;2023-02-03T04:25:40;12.89;71.34
74811;DHT22;63340;48.404;-4.506;2023-02-03T04:28:05;12.88;71.21
74811;DHT22;63340;48.404;-4.506;2023-02-03T04:30:31;12.85;71.29
74811;DHT22;63340;48.404;-4.506;2023-02-03T04:32:57;12.82;71.19
74811;DHT22;63340;48.404;-4.506;2023-02-03T04:35:22;12.76;71.23
74811;DHT22;63340;48.404;-4.506;2023-02-03T04:37:48;12.74;71.41
74811;DHT22;63340;48.404;-4.506;2023-02-03T04:40:13;12.71;71.29
74811;DHT22;63340;48.404;-4.506;2023-02-03T04:42:39;12.69;71.31
74811;DHT22;63340;48.404;-4.506;2023-02-03T04:45:07;12.69;71.21
74811;DHT22;63340;48.404;-4.506;2023-02-03T04:47:33;12.62;71.38
74811;DHT22;63340;48.404;-4.506;2023-02-03T04:49:58;12.62;71.41
74811;DHT22;63340;48.404;-4.506;2023-02-03T04:52:24;12.58;71.48
74811;DHT22;63340;48.404;-4.506;2023-02-03T04:54:50;12.62;71.35
74811;DHT22;63340;48.404;-4.506;2023-02-03T04:57:15;12.64;71.35
74811;DHT22;63340;48.404;-4.506;2023-02-03T04:59:41;12.64;71.38
74811;DHT22;63340;48.404;-4.506;2023-02-03T05:02:06;12.65;71.34
74811;DHT22;63340;48.404;-4.506;2023-02-03T05:04:33;12.62;71.41
74811;DHT22;63340;48.404;-4.506;2023-02-03T05:06:58;12.61;71.44
74811;DHT22;63340;48.404;-4.506;2023-02-03T05:09:46;12.62;71.45
74811;DHT22;63340;48.404;-4.506;2023-02-03T05:12:12;12.59;71.40
74811;DHT22;63340;48.404;-4.506;2023-02-03T05:14:56;12.61;71.26
74811;DHT22;63340;48.404;-4.506;2023-02-03T05:17:39;12.62;71.16
74811;DHT22;63340;48.404;-4.506;2023-02-03T05:20:05;12.64;71.11
74811;DHT22;63340;48.404;-4.506;2023-02-03T05:22:31;12.61;71.09
74811;DHT22;63340;48.404;-4.506;2023-02-03T05:24:56;12.61;70.94
74811;DHT22;63340;48.404;-4.506;2023-02-03T05:27:22;12.68;70.87
74811;DHT22;63340;48.404;-4.506;2023-02-03T05:29:47;12.71;70.69
74811;DHT22;63340;48.404;-4.506;2023-02-03T05:32:13;12.72;70.56
74811;DHT22;63340;48.404;-4.506;2023-02-03T05:34:38;12.74;70.56
74811;DHT22;63340;48.404;-4.506;2023-02-03T05:37:04;12.76;70.40
74811;DHT22;63340;48.404;-4.506;2023-02-03T05:39:29;12.78;70.27
74811;DHT22;63340;48.404;-4.506;2023-02-03T05:41:55;12.78;70.19
74811;DHT22;63340;48.404;-4.506;2023-02-03T05:44:27;12.78;70.23
74811;DHT22;63340;48.404;-4.506;2023-02-03T05:46:54;12.81;70.24
74811;DHT22;63340;48.404;-4.506;2023-02-03T05:49:20;12.84;70.20
74811;DHT22;63340;48.404;-4.506;2023-02-03T05:51:48;12.82;70.19
74811;DHT22;63340;48.404;-4.506;2023-02-03T05:54:14;12.91;70.17
74811;DHT22;63340;48.404;-4.506;2023-02-03T05:56:39;12.93;70.01
74811;DHT22;63340;48.404;-4.506;2023-02-03T05:59:05;12.99;69.87
74811;DHT22;63340;48.404;-4.506;2023-02-03T06:01:31;13.05;69.76
74811;DHT22;63340;48.404;-4.506;2023-02-03T06:03:57;13.09;69.63
74811;DHT22;63340;48.404;-4.506;2023-02-03T06:06:23;13.12;69.48
74811;DHT22;63340;48.404;-4.506;2023-02-03T06:08:48;13.16;69.39
74811;DHT22;63340;48.404;-4.506;2023-02-03T06:11:16;13.16;69.31
74811;DHT22;63340;48.404;-4.506;2023-02-03T06:13:42;13.17;69.32
74811;DHT22;63340;48.404;-4.506;2023-02-03T06:16:08;13.19;69.43
74811;DHT22;63340;48.404;-4.506;2023-02-03T06:18:33;13.19;69.44
74811;DHT22;63340;48.404;-4.506;2023-02-03T06:20:59;13.22;69.37
74811;DHT22;63340;48.404;-4.506;2023-02-03T06:23:24;13.23;69.29
74811;DHT22;63340;48.404;-4.506;2023-02-03T06:25:50;13.23;69.19
74811;DHT22;63340;48.404;-4.506;2023-02-03T06:28:19;13.26;69.09
74811;DHT22;63340;48.404;-4.506;2023-02-03T06:30:48;13.23;69.21
74811;DHT22;63340;48.404;-4.506;2023-02-03T06:33:14;13.24;69.16
74811;DHT22;63340;48.404;-4.506;2023-02-03T06:35:50;13.24;69.06
74811;DHT22;63340;48.404;-4.506;2023-02-03T06:38:18;13.23;69.12
74811;DHT22;63340;48.404;-4.506;2023-02-03T06:40:46;13.17;69.22
74811;DHT22;63340;48.404;-4.506;2023-02-03T06:43:12;13.13;69.32
74811;DHT22;63340;48.404;-4.506;2023-02-03T06:45:37;13.10;69.37
74811;DHT22;63340;48.404;-4.506;2023-02-03T06:48:03;13.10;69.39
74811;DHT22;63340;48.404;-4.506;2023-02-03T06:50:37;13.10;69.43
74811;DHT22;63340;48.404;-4.506;2023-02-03T06:53:03;13.13;69.48
74811;DHT22;63340;48.404;-4.506;2023-02-03T06:55:28;13.13;69.39
74811;DHT22;63340;48.404;-4.506;2023-02-03T06:57:56;13.17;69.32
74811;DHT22;63340;48.404;-4.506;2023-02-03T07:00:21;13.14;69.20
74811;DHT22;63340;48.404;-4.506;2023-02-03T07:02:56;13.17;68.83
74811;DHT22;63340;48.404;-4.506;2023-02-03T07:05:23;13.16;68.89
74811;DHT22;63340;48.404;-4.506;2023-02-03T07:07:50;13.16;68.90
74811;DHT22;63340;48.404;-4.506;2023-02-03T07:10:16;13.17;68.81
74811;DHT22;63340;48.404;-4.506;2023-02-03T07:12:42;13.19;68.10
74811;DHT22;63340;48.404;-4.506;2023-02-03T07:15:11;13.13;68.14
74811;DHT22;63340;48.404;-4.506;2023-02-03T07:17:37;13.09;67.85
74811;DHT22;63340;48.404;-4.506;2023-02-03T07:20:02;13.06;67.83
74811;DHT22;63340;48.404;-4.506;2023-02-03T07:22:29;13.00;67.59
74811;DHT22;63340;48.404;-4.506;2023-02-03T07:24:54;12.97;67.64
74811;DHT22;63340;48.404;-4.506;2023-02-03T07:27:20;12.92;67.18
74811;DHT22;63340;48.404;-4.506;2023-02-03T07:29:45;12.92;67.11
74811;DHT22;63340;48.404;-4.506;2023-02-03T07:32:13;12.92;66.99
74811;DHT22;63340;48.404;-4.506;2023-02-03T07:34:39;12.92;66.57
74811;DHT22;63340;48.404;-4.506;2023-02-03T07:37:04;12.95;66.80
74811;DHT22;63340;48.404;-4.506;2023-02-03T07:39:30;12.88;65.61
74811;DHT22;63340;48.404;-4.506;2023-02-03T07:42:02;12.86;66.20
74811;DHT22;63340;48.404;-4.506;2023-02-03T07:44:28;12.89;66.43
74811;DHT22;63340;48.404;-4.506;2023-02-03T07:46:58;12.93;65.95
74811;DHT22;63340;48.404;-4.506;2023-02-03T07:52:39;12.95;66.04
74811;DHT22;63340;48.404;-4.506;2023-02-03T07:55:05;13.02;66.03
74811;DHT22;63340;48.404;-4.506;2023-02-03T07:57:31;13.06;65.96
74811;DHT22;63340;48.404;-4.506;2023-02-03T07:59:56;13.07;65.54
74811;DHT22;63340;48.404;-4.506;2023-02-03T08:02:22;13.05;65.70
74811;DHT22;63340;48.404;-4.506;2023-02-03T08:04:47;13.05;65.76
74811;DHT22;63340;48.404;-4.506;2023-02-03T08:07:13;13.02;65.64
74811;DHT22;63340;48.404;-4.506;2023-02-03T08:09:38;13.02;65.87
74811;DHT22;63340;48.404;-4.506;2023-02-03T08:12:04;13.00;65.75
74811;DHT22;63340;48.404;-4.506;2023-02-03T08:14:29;12.99;65.85
74811;DHT22;63340;48.404;-4.506;2023-02-03T08:16:55;12.93;65.61
74811;DHT22;63340;48.404;-4.506;2023-02-03T08:19:21;12.91;65.67
74811;DHT22;63340;48.404;-4.506;2023-02-03T08:21:46;12.92;65.45
74811;DHT22;63340;48.404;-4.506;2023-02-03T08:24:12;12.92;65.65
74811;DHT22;63340;48.404;-4.506;2023-02-03T08:26:37;12.93;65.65
74811;DHT22;63340;48.404;-4.506;2023-02-03T08:29:03;12.93;65.36
74811;DHT22;63340;48.404;-4.506;2023-02-03T08:31:29;12.96;65.50
74811;DHT22;63340;48.404;-4.506;2023-02-03T08:33:57;12.93;65.52
74811;DHT22;63340;48.404;-4.506;2023-02-03T08:36:22;12.92;65.23
74811;DHT22;63340;48.404;-4.506;2023-02-03T08:38:48;12.92;65.16
74811;DHT22;63340;48.404;-4.506;2023-02-03T08:41:16;12.89;65.14
74811;DHT22;63340;48.404;-4.506;2023-02-03T08:43:44;12.86;65.37
74811;DHT22;63340;48.404;-4.506;2023-02-03T08:46:11;12.85;65.28
74811;DHT22;63340;48.404;-4.506;2023-02-03T08:48:40;12.82;65.41
74811;DHT22;63340;48.404;-4.506;2023-02-03T08:51:14;12.76;65.31
74811;DHT22;63340;48.404;-4.506;2023-02-03T08:53:39;12.78;65.37
74811;DHT22;63340;48.404;-4.506;2023-02-03T08:56:06;12.78;65.56
74811;DHT22;63340;48.404;-4.506;2023-02-03T08:58:32;12.81;65.72
74811;DHT22;63340;48.404;-4.506;2023-02-03T09:01:12;12.85;65.73
74811;DHT22;63340;48.404;-4.506;2023-02-03T09:03:38;12.85;65.11
74811;DHT22;63340;48.404;-4.506;2023-02-03T09:06:05;12.85;65.22
74811;DHT22;63340;48.404;-4.506;2023-02-03T09:08:31;12.86;65.33
74811;DHT22;63340;48.404;-4.506;2023-02-03T09:10:57;12.92;65.74
74811;DHT22;63340;48.404;-4.506;2023-02-03T09:13:23;12.93;65.68
74811;DHT22;63340;48.404;-4.506;2023-02-03T09:15:48;12.93;65.23
74811;DHT22;63340;48.404;-4.506;2023-02-03T09:18:14;12.93;65.26
74811;DHT22;63340;48.404;-4.506;2023-02-03T09:20:39;12.93;65.13
74811;DHT22;63340;48.404;-4.506;2023-02-03T09:23:04;12.96;65.49
74811;DHT22;63340;48.404;-4.506;2023-02-03T09:25:30;13.02;65.52
74811;DHT22;63340;48.404;-4.506;2023-02-03T09:27:55;13.03;65.26
74811;DHT22;63340;48.404;-4.506;2023-02-03T09:30:21;13.06;65.44
74811;DHT22;63340;48.404;-4.506;2023-02-03T09:32:46;13.10;65.28
74811;DHT22;63340;48.404;-4.506;2023-02-03T09:35:18;13.13;65.49
74811;DHT22;63340;48.404;-4.506;2023-02-03T09:37:44;13.14;65.29
74811;DHT22;63340;48.404;-4.506;2023-02-03T09:40:19;13.19;65.11
74811;DHT22;63340;48.404;-4.506;2023-02-03T09:42:54;13.22;64.84
74811;DHT22;63340;48.404;-4.506;2023-02-03T09:45:26;13.22;64.88
74811;DHT22;63340;48.404;-4.506;2023-02-03T09:47:53;13.28;64.94
74811;DHT22;63340;48.404;-4.506;2023-02-03T09:50:27;13.36;64.94
74811;DHT22;63340;48.404;-4.506;2023-02-03T09:52:55;13.43;64.97
74811;DHT22;63340;48.404;-4.506;2023-02-03T09:55:42;13.44;65.01
74811;DHT22;63340;48.404;-4.506;2023-02-03T09:58:18;13.44;64.63
74811;DHT22;63340;48.404;-4.506;2023-02-03T10:00:55;13.44;64.39
74811;DHT22;63340;48.404;-4.506;2023-02-03T10:03:38;13.41;64.50
74811;DHT22;63340;48.404;-4.506;2023-02-03T10:15:06;13.37;64.41
74811;DHT22;63340;48.404;-4.506;2023-02-03T10:17:46;13.39;64.31
74811;DHT22;63340;48.404;-4.506;2023-02-03T10:20:31;13.36;64.23
74811;DHT22;63340;48.404;-4.506;2023-02-03T10:23:03;13.34;64.65
74811;DHT22;63340;48.404;-4.506;2023-02-03T10:25:35;13.39;64.38
74811;DHT22;63340;48.404;-4.506;2023-02-03T10:28:09;13.39;64.34
74811;DHT22;63340;48.404;-4.506;2023-02-03T10:30:53;13.39;64.43
74811;DHT22;63340;48.404;-4.506;2023-02-03T10:33:23;13.40;64.47
74811;DHT22;63340;48.404;-4.506;2023-02-03T10:41:09;13.44;64.41
74811;DHT22;63340;48.404;-4.506;2023-02-03T10:43:35;13.46;64.50
74811;DHT22;63340;48.404;-4.506;2023-02-03T10:46:16;13.50;64.30
74811;DHT22;63340;48.404;-4.506;2023-02-03T10:48:43;13.50;64.32
74811;DHT22;63340;48.404;-4.506;2023-02-03T10:51:27;13.50;63.99
74811;DHT22;63340;48.404;-4.506;2023-02-03T10:53:56;13.54;63.96
74811;DHT22;63340;48.404;-4.506;2023-02-03T10:56:31;13.55;63.93
74811;DHT22;63340;48.404;-4.506;2023-02-03T10:58:59;13.62;64.01
74811;DHT22;63340;48.404;-4.506;2023-02-03T11:01:39;13.65;63.76
74811;DHT22;63340;48.404;-4.506;2023-02-03T11:04:19;13.68;63.98
74811;DHT22;63340;48.404;-4.506;2023-02-03T11:06:55;13.67;63.60
74811;DHT22;63340;48.404;-4.506;2023-02-03T11:09:41;13.70;63.95
74811;DHT22;63340;48.404;-4.506;2023-02-03T11:12:19;13.68;63.15
74811;DHT22;63340;48.404;-4.506;2023-02-03T11:14:47;13.68;63.79
74811;DHT22;63340;48.404;-4.506;2023-02-03T11:19:43;13.72;63.27
74811;DHT22;63340;48.404;-4.506;2023-02-03T11:22:10;13.67;63.06
74811;DHT22;63340;48.404;-4.506;2023-02-03T11:24:38;13.65;63.41
74811;DHT22;63340;48.404;-4.506;2023-02-03T11:27:16;13.70;63.52
74811;DHT22;63340;48.404;-4.506;2023-02-03T11:29:44;13.71;63.73
74811;DHT22;63340;48.404;-4.506;2023-02-03T11:34:56;13.72;63.45
74811;DHT22;63340;48.404;-4.506;2023-02-03T11:37:34;13.77;63.56
74811;DHT22;63340;48.404;-4.506;2023-02-03T11:42:41;13.82;63.67
74811;DHT22;63340;48.404;-4.506;2023-02-03T11:47:46;13.83;63.45
74811;DHT22;63340;48.404;-4.506;2023-02-03T12:04:49;13.82;63.80
74811;DHT22;63340;48.404;-4.506;2023-02-03T12:07:31;13.89;63.30
74811;DHT22;63340;48.404;-4.506;2023-02-03T12:21:01;13.85;63.71
74811;DHT22;63340;48.404;-4.506;2023-02-03T12:24:03;13.88;63.95
74811;DHT22;63340;48.404;-4.506;2023-02-03T12:26:56;13.92;63.77
74811;DHT22;63340;48.404;-4.506;2023-02-03T12:29:31;13.97;63.65
74811;DHT22;63340;48.404;-4.506;2023-02-03T12:34:53;13.92;63.53
74811;DHT22;63340;48.404;-4.506;2023-02-03T12:40:34;13.88;63.66
74811;DHT22;63340;48.404;-4.506;2023-02-03T12:45:50;13.88;62.62
74811;DHT22;63340;48.404;-4.506;2023-02-03T12:48:21;13.86;63.23
74811;DHT22;63340;48.404;-4.506;2023-02-03T12:50:59;13.88;63.41
74811;DHT22;63340;48.404;-4.506;2023-02-03T12:53:31;13.89;63.11
74811;DHT22;63340;48.404;-4.506;2023-02-03T12:56:02;13.86;62.74
74811;DHT22;63340;48.404;-4.506;2023-02-03T12:58:55;13.85;62.84
74811;DHT22;63340;48.404;-4.506;2023-02-03T13:01:35;13.85;63.00
74811;DHT22;63340;48.404;-4.506;2023-02-03T13:04:11;13.83;63.07
74811;DHT22;63340;48.404;-4.506;2023-02-03T13:12:11;13.79;62.74
74811;DHT22;63340;48.404;-4.506;2023-02-03T13:14:48;13.71;62.59
74811;DHT22;63340;48.404;-4.506;2023-02-03T13:17:23;13.67;62.76
74811;DHT22;63340;48.404;-4.506;2023-02-03T13:19:58;13.65;62.77
74811;DHT22;63340;48.404;-4.506;2023-02-03T13:22:24;13.61;62.60
74811;DHT22;63340;48.404;-4.506;2023-02-03T13:30:45;13.48;62.30
74811;DHT22;63340;48.404;-4.506;2023-02-03T13:36:21;13.44;62.18
74811;DHT22;63340;48.404;-4.506;2023-02-03T13:44:43;13.27;62.00
74811;DHT22;63340;48.404;-4.506;2023-02-03T13:47:17;13.26;62.01
74811;DHT22;63340;48.404;-4.506;2023-02-03T13:49:48;13.32;62.08
74811;DHT22;63340;48.404;-4.506;2023-02-03T13:52:24;13.28;61.69
74811;DHT22;63340;48.404;-4.506;2023-02-03T13:54:50;13.32;62.06
74811;DHT22;63340;48.404;-4.506;2023-02-03T13:57:22;13.33;61.67
74811;DHT22;63340;48.404;-4.506;2023-02-03T13:59:51;13.30;61.36
74811;DHT22;63340;48.404;-4.506;2023-02-03T14:04:58;13.33;61.00
74811;DHT22;63340;48.404;-4.506;2023-02-03T14:07:35;13.27;61.15
74811;DHT22;63340;48.404;-4.506;2023-02-03T14:12:38;13.36;61.39
74811;DHT22;63340;48.404;-4.506;2023-02-03T14:22:56;13.30;59.94
74811;DHT22;63340;48.404;-4.506;2023-02-03T14:25:23;13.26;60.57
74811;DHT22;63340;48.404;-4.506;2023-02-03T14:28:04;13.22;60.67
74811;DHT22;63340;48.404;-4.506;2023-02-03T14:30:30;13.28;61.22
74811;DHT22;63340;48.404;-4.506;2023-02-03T14:33:00;13.39;61.09
74811;DHT22;63340;48.404;-4.506;2023-02-03T14:35:38;13.46;60.58
74811;DHT22;63340;48.404;-4.506;2023-02-03T14:38:12;13.47;60.31
74811;DHT22;63340;48.404;-4.506;2023-02-03T14:48:48;13.39;59.81
74811;DHT22;63340;48.404;-4.506;2023-02-03T14:51:25;13.41;60.14
74811;DHT22;63340;48.404;-4.506;2023-02-03T14:59:54;13.46;59.78
74811;DHT22;63340;48.404;-4.506;2023-02-03T15:02:25;13.40;58.57
74811;DHT22;63340;48.404;-4.506;2023-02-03T15:07:46;13.40;58.93
74811;DHT22;63340;48.404;-4.506;2023-02-03T15:10:49;13.47;58.80
74811;DHT22;63340;48.404;-4.506;2023-02-03T15:15:52;13.55;58.99
74811;DHT22;63340;48.404;-4.506;2023-02-03T15:18:25;13.50;58.59
74811;DHT22;63340;48.404;-4.506;2023-02-03T15:20:53;13.53;59.03
74811;DHT22;63340;48.404;-4.506;2023-02-03T15:23:23;13.57;58.84
74811;DHT22;63340;48.404;-4.506;2023-02-03T15:26:02;13.54;58.30
74811;DHT22;63340;48.404;-4.506;2023-02-03T15:28:29;13.51;58.50
74811;DHT22;63340;48.404;-4.506;2023-02-03T15:31:23;13.51;58.47
74811;DHT22;63340;48.404;-4.506;2023-02-03T15:33:47;13.55;58.55
74811;DHT22;63340;48.404;-4.506;2023-02-03T15:36:23;13.61;58.53
74811;DHT22;63340;48.404;-4.506;2023-02-03T15:39:00;13.64;58.52
74811;DHT22;63340;48.404;-4.506;2023-02-03T15:41:29;13.70;58.35
74811;DHT22;63340;48.404;-4.506;2023-02-03T15:43:59;13.70;57.99
74811;DHT22;63340;48.404;-4.506;2023-02-03T15:46:49;13.71;56.71
74811;DHT22;63340;48.404;-4.506;2023-02-03T15:49:22;13.70;57.85
74811;DHT22;63340;48.404;-4.506;2023-02-03T15:51:57;13.62;57.22
74811;DHT22;63340;48.404;-4.506;2023-02-03T15:54:52;13.58;56.44
74811;DHT22;63340;48.404;-4.506;2023-02-03T15:57:25;13.57;57.63
74811;DHT22;63340;48.404;-4.506;2023-02-03T15:59:56;13.61;57.44
74811;DHT22;63340;48.404;-4.506;2023-02-03T16:02:35;13.57;56.78
74811;DHT22;63340;48.404;-4.506;2023-02-03T16:05:22;13.57;57.36
74811;DHT22;63340;48.404;-4.506;2023-02-03T16:07:48;13.55;57.49
74811;DHT22;63340;48.404;-4.506;2023-02-03T16:10:30;13.53;57.01
74811;DHT22;63340;48.404;-4.506;2023-02-03T16:13:32;13.57;57.56
74811;DHT22;63340;48.404;-4.506;2023-02-03T16:16:16;13.57;57.70
74811;DHT22;63340;48.404;-4.506;2023-02-03T16:18:59;13.55;57.58
74811;DHT22;63340;48.404;-4.506;2023-02-03T16:21:40;13.47;56.96
74811;DHT22;63340;48.404;-4.506;2023-02-03T16:26:55;13.34;57.57
74811;DHT22;63340;48.404;-4.506;2023-02-03T16:29:40;13.37;57.80
74811;DHT22;63340;48.404;-4.506;2023-02-03T16:32:24;13.41;57.35
74811;DHT22;63340;48.404;-4.506;2023-02-03T16:35:09;13.40;57.39
74811;DHT22;63340;48.404;-4.506;2023-02-03T16:37:53;13.41;57.25
74811;DHT22;63340;48.404;-4.506;2023-02-03T16:40:37;13.36;57.15
74811;DHT22;63340;48.404;-4.506;2023-02-03T16:43:21;13.33;57.39
74811;DHT22;63340;48.404;-4.506;2023-02-03T16:46:10;13.32;57.44
74811;DHT22;63340;48.404;-4.506;2023-02-03T16:48:54;13.33;57.52
74811;DHT22;63340;48.404;-4.506;2023-02-03T16:51:40;13.30;57.49
74811;DHT22;63340;48.404;-4.506;2023-02-03T16:54:09;13.26;57.49
74811;DHT22;63340;48.404;-4.506;2023-02-03T16:56:37;13.23;57.55
74811;DHT22;63340;48.404;-4.506;2023-02-03T16:59:02;13.22;57.57
74811;DHT22;63340;48.404;-4.506;2023-02-03T17:01:28;13.20;57.92
74811;DHT22;63340;48.404;-4.506;2023-02-03T17:03:53;13.17;57.60
74811;DHT22;63340;48.404;-4.506;2023-02-03T17:06:18;13.19;57.80
74811;DHT22;63340;48.404;-4.506;2023-02-03T17:08:44;13.14;57.31
74811;DHT22;63340;48.404;-4.506;2023-02-03T17:11:14;13.13;57.57
74811;DHT22;63340;48.404;-4.506;2023-02-03T17:13:40;13.16;57.81
74811;DHT22;63340;48.404;-4.506;2023-02-03T17:16:18;13.17;57.58
74811;DHT22;63340;48.404;-4.506;2023-02-03T17:18:44;13.23;57.45
74811;DHT22;63340;48.404;-4.506;2023-02-03T17:21:21;13.24;57.49
74811;DHT22;63340;48.404;-4.506;2023-02-03T17:23:47;13.24;57.44
74811;DHT22;63340;48.404;-4.506;2023-02-03T17:26:12;13.24;57.51
74811;DHT22;63340;48.404;-4.506;2023-02-03T17:28:39;13.23;57.67
74811;DHT22;63340;48.404;-4.506;2023-02-03T17:31:09;13.23;57.41
74811;DHT22;63340;48.404;-4.506;2023-02-03T17:33:36;13.24;57.53
74811;DHT22;63340;48.404;-4.506;2023-02-03T17:36:04;13.22;57.13
74811;DHT22;63340;48.404;-4.506;2023-02-03T17:38:35;13.17;57.42
74811;DHT22;63340;48.404;-4.506;2023-02-03T17:41:09;13.13;57.47
74811;DHT22;63340;48.404;-4.506;2023-02-03T17:43:35;13.14;57.70
74811;DHT22;63340;48.404;-4.506;2023-02-03T17:46:00;13.12;57.75
74811;DHT22;63340;48.404;-4.506;2023-02-03T17:48:26;13.06;57.52
74811;DHT22;63340;48.404;-4.506;2023-02-03T17:50:51;13.07;57.84